Time;durP1;ratioP1;P1;durP2;ratioP2;P2;SDS_P1;SDS_P2;PMS_P1;PMS_P2;Temp;Humidity;BMP_temperature;BMP_pressure;BME280_temperature;BME280_humidity;BME280_pressure;Samples;Min_cycle;Max_cycle;Signal;HPM_P1;HPM_P2
2023/09/11 00:23:16;;;;;;;12.00;11.03;;;20.50;99.90;;;;;;5063531;28;20509;-82
2023/09/11 00:26:09;;;;;;;12.50;11.03;;;20.50;99.90;;;;;;5061490;28;20507;-81
2023/09/11 00:29:05;;;;;;;12.33;11.33;;;20.50;99.90;;;;;;5059626;28;20441;-80
2023/09/11 00:35:14;;;;;;;11.50;10.60;;;20.40;99.90;;;;;;5057564;28;20461;-80
2023/09/11 00:38:07;;;;;;;11.60;10.70;;;20.30;99.90;;;;;;4961201;28;20653;-80
2023/09/11 00:40:52;;;;;;;12.67;11.57;;;20.40;99.90;;;;;;5015725;28;20463;-79
2023/09/11 00:43:35;;;;;;;12.03;11.03;;;20.30;99.90;;;;;;5064197;28;20464;-80
2023/09/11 00:49:19;;;;;;;11.90;10.70;;;20.30;99.90;;;;;;5060633;28;20434;-79
2023/09/11 00:52:04;;;;;;;12.33;10.47;;;20.20;99.90;;;;;;5062626;28;20453;-79
2023/09/11 00:54:42;;;;;;;12.10;11.00;;;20.20;99.90;;;;;;5062841;28;20445;-80
2023/09/11 00:57:24;;;;;;;12.23;11.33;;;20.10;99.90;;;;;;5062894;28;20478;-80
2023/09/11 01:00:38;;;;;;;11.77;10.77;;;20.10;99.90;;;;;;5064921;28;20449;-81
2023/09/11 01:03:20;;;;;;;11.80;10.70;;;20.10;99.90;;;;;;5061677;28;20472;-80
2023/09/11 01:06:21;;;;;;;13.17;11.87;;;19.90;99.90;;;;;;5063948;28;20544;-80
2023/09/11 01:09:03;;;;;;;11.53;10.63;;;19.90;99.90;;;;;;5063174;28;20877;-80
2023/09/11 01:11:47;;;;;;;12.83;11.50;;;19.90;99.90;;;;;;5064203;28;20484;-80
2023/09/11 01:14:33;;;;;;;12.63;11.30;;;19.90;99.90;;;;;;5061131;28;20477;-79
2023/09/11 01:17:41;;;;;;;12.00;11.00;;;19.90;99.90;;;;;;5060877;28;20481;-80
2023/09/11 01:20:51;;;;;;;12.17;11.20;;;19.90;99.90;;;;;;5001762;28;20452;-80
2023/09/11 01:27:30;;;;;;;13.90;11.93;;;19.80;99.90;;;;;;5062916;28;20834;-81
2023/09/11 01:30:25;;;;;;;12.63;11.53;;;19.80;99.90;;;;;;5057465;28;20446;-81
2023/09/11 01:36:35;;;;;;;12.60;11.30;;;19.80;99.90;;;;;;5062190;28;20537;-80
2023/09/11 01:39:39;;;;;;;12.00;11.00;;;19.70;99.90;;;;;;5065772;28;20464;-80
2023/09/11 01:42:32;;;;;;;14.43;11.40;;;19.60;99.90;;;;;;5062510;28;20495;-79
2023/09/11 01:52:05;;;;;;;12.43;11.20;;;19.50;99.90;;;;;;5001419;28;20433;-79
2023/09/11 01:55:09;;;;;;;12.20;11.20;;;19.60;99.90;;;;;;5000378;28;20499;-80
2023/09/11 01:58:17;;;;;;;13.00;11.90;;;19.60;99.90;;;;;;4953910;28;20479;-80
2023/09/11 02:04:34;;;;;;;23.80;21.47;;;19.40;99.90;;;;;;4980087;28;20460;-79
2023/09/11 02:07:29;;;;;;;16.40;15.07;;;19.40;99.90;;;;;;5005160;28;20455;-80
2023/09/11 02:13:34;;;;;;;14.67;13.37;;;19.30;99.90;;;;;;4991027;28;20441;-80
2023/09/11 02:16:38;;;;;;;13.27;12.03;;;19.20;99.90;;;;;;5044472;28;20449;-81
2023/09/11 02:23:18;;;;;;;13.17;12.03;;;19.30;99.90;;;;;;4937774;29;20532;-80
2023/09/11 02:29:54;;;;;;;12.90;11.80;;;19.20;99.90;;;;;;5061277;28;20438;-81
2023/09/11 02:39:56;;;;;;;13.97;12.57;;;19.00;99.90;;;;;;5021297;28;20443;-80
2023/09/11 02:50:02;;;;;;;13.90;12.60;;;18.90;99.90;;;;;;4961634;28;20456;-79
2023/09/11 02:59:47;;;;;;;13.70;12.50;;;18.90;99.90;;;;;;5021112;28;20479;-80
2023/09/11 03:02:39;;;;;;;14.40;13.20;;;18.80;99.90;;;;;;5063813;28;20453;-81
2023/09/11 03:08:35;;;;;;;13.70;12.60;;;18.80;99.90;;;;;;5049446;28;20422;-79
2023/09/11 03:11:33;;;;;;;13.13;11.97;;;18.80;99.90;;;;;;5063538;28;20445;-80
2023/09/11 03:14:26;;;;;;;14.50;13.23;;;18.70;99.90;;;;;;5063616;28;20543;-80
2023/09/11 03:17:16;;;;;;;13.90;12.70;;;18.70;99.90;;;;;;5062440;28;20450;-80
2023/09/11 03:26:04;;;;;;;14.27;12.90;;;18.60;99.90;;;;;;5062718;28;20829;-81
2023/09/11 03:34:53;;;;;;;14.80;13.43;;;18.50;99.90;;;;;;5059821;28;20455;-81
2023/09/11 03:38:06;;;;;;;14.20;13.00;;;18.50;99.90;;;;;;5060492;28;20496;-78
2023/09/11 03:41:12;;;;;;;;;;;;;;;;;;;;;
2023/09/11 03:50:46;;;;;;;14.70;13.40;;;18.30;99.90;;;;;;4998567;28;20532;-80
2023/09/11 03:53:46;;;;;;;14.63;13.63;;;18.20;99.90;;;;;;4938175;29;20450;-81
2023/09/11 03:56:29;;;;;;;15.40;13.80;;;18.20;99.90;;;;;;4939108;29;20463;-80
2023/09/11 03:59:19;;;;;;;14.83;13.63;;;18.20;99.90;;;;;;5034438;28;20489;-79
2023/09/11 04:02:33;;;;;;;16.07;14.57;;;18.10;99.90;;;;;;5056930;28;20461;-79
2023/09/11 04:05:37;;;;;;;15.80;14.30;;;18.10;99.90;;;;;;5054137;28;21001;-80
2023/09/11 04:15:25;;;;;;;15.40;14.00;;;18.20;99.90;;;;;;5045139;28;20472;-79
2023/09/11 04:21:55;;;;;;;14.87;13.60;;;18.10;99.90;;;;;;4995740;28;20476;-80
2023/09/11 04:24:56;;;;;;;14.80;13.60;;;18.10;99.90;;;;;;5058119;28;20476;-80
2023/09/11 04:28:24;;;;;;;;;;;;;;;;;;;;;
2023/09/11 04:31:22;;;;;;;15.60;14.20;;;18.10;99.90;;;;;;5058254;28;20455;-79
2023/09/11 04:34:06;;;;;;;14.87;13.57;;;17.70;99.90;;;;;;5060811;28;20469;-79
2023/09/11 04:37:04;;;;;;;15.40;14.17;;;18.00;99.90;;;;;;5060315;28;20950;-79
2023/09/11 04:39:41;;;;;;;15.53;14.13;;;18.00;99.90;;;;;;5060248;28;20477;-80
2023/09/11 04:42:23;;;;;;;16.30;14.70;;;18.00;99.90;;;;;;5060515;28;20457;-79
2023/09/11 04:45:19;;;;;;;14.63;13.33;;;18.00;99.90;;;;;;5058215;28;20469;-79
2023/09/11 04:48:02;;;;;;;14.67;13.47;;;18.00;99.90;;;;;;5062917;28;20456;-83
2023/09/11 04:50:42;;;;;;;14.67;13.47;;;18.00;99.90;;;;;;5059852;28;20459;-79
2023/09/11 04:53:43;;;;;;;14.77;13.37;;;18.00;99.90;;;;;;5060043;28;20507;-80
2023/09/11 04:56:24;;;;;;;14.40;13.00;;;18.00;99.90;;;;;;5057751;28;20484;-79
2023/09/11 04:59:04;;;;;;;14.70;13.40;;;18.00;99.90;;;;;;5061867;28;20481;-82
2023/09/11 05:01:55;;;;;;;14.63;13.43;;;18.00;99.90;;;;;;5064638;28;20441;-82
2023/09/11 05:10:45;;;;;;;14.30;13.00;;;18.00;99.90;;;;;;5073464;28;20449;-82
2023/09/11 05:13:18;;;;;;;13.80;12.70;;;18.00;99.90;;;;;;5080995;28;20456;-79
2023/09/11 05:15:53;;;;;;;12.97;11.90;;;18.00;99.90;;;;;;5078581;28;20449;-82
2023/09/11 05:21:33;;;;;;;12.70;11.70;;;18.10;99.90;;;;;;5076557;28;20459;-80
2023/09/11 05:24:02;;;;;;;13.80;12.70;;;18.10;99.90;;;;;;5078092;28;20484;-79
2023/09/11 05:26:49;;;;;;;12.63;11.70;;;18.10;99.90;;;;;;5081997;28;20520;-80
2023/09/11 05:29:28;;;;;;;13.17;12.03;;;18.00;99.90;;;;;;5079634;28;20445;-80
2023/09/11 05:32:12;;;;;;;13.67;12.37;;;18.30;99.90;;;;;;5080952;28;20453;-81
2023/09/11 05:35:19;;;;;;;;;;;;;;;;;;;;;
2023/09/11 05:38:19;;;;;;;93.70;81.23;;;18.10;99.90;;;;;;5088419;28;20429;-80
2023/09/11 05:41:03;;;;;;;69.83;55.37;;;18.10;99.90;;;;;;5088003;28;20447;-81
2023/09/11 05:43:49;;;;;;;33.40;29.77;;;18.20;99.90;;;;;;5089103;28;20472;-80
2023/09/11 05:46:54;;;;;;;18.13;16.20;;;18.10;99.90;;;;;;5087559;28;20459;-81
2023/09/11 05:53:02;;;;;;;15.30;13.90;;;18.30;99.90;;;;;;5082894;28;20452;-80
2023/09/11 05:55:49;;;;;;;20.57;14.70;;;18.40;99.90;;;;;;5086516;28;20535;-81
2023/09/11 05:58:30;;;;;;;16.23;14.70;;;18.50;99.90;;;;;;5084311;28;20480;-80
2023/09/11 06:01:15;;;;;;;15.37;14.03;;;18.60;99.90;;;;;;5086170;28;20452;-79
2023/09/11 06:04:00;;;;;;;15.37;13.77;;;18.60;99.90;;;;;;5083356;28;20471;-80
2023/09/11 06:09:28;;;;;;;15.60;13.97;;;18.80;99.90;;;;;;5079192;28;20479;-80
2023/09/11 06:12:16;;;;;;;15.57;14.03;;;18.90;99.90;;;;;;5079000;28;20540;-80
2023/09/11 06:14:55;;;;;;;14.43;12.97;;;19.00;99.90;;;;;;5079505;28;20889;-81
2023/09/11 06:18:00;;;;;;;15.13;13.53;;;19.10;99.90;;;;;;5079450;28;20452;-79
2023/09/11 06:20:39;;;;;;;14.93;13.57;;;19.20;99.90;;;;;;5078430;28;20459;-83
2023/09/11 06:23:23;;;;;;;15.23;13.80;;;19.20;99.90;;;;;;5078468;28;20448;-80
2023/09/11 06:26:00;;;;;;;15.97;14.40;;;19.30;99.90;;;;;;5078620;28;20437;-82
2023/09/11 06:29:02;;;;;;;16.50;15.00;;;19.40;99.90;;;;;;5079426;28;20498;-80
2023/09/11 06:37:41;;;;;;;16.10;14.50;;;19.60;99.90;;;;;;5076650;28;20480;-81
2023/09/11 06:40:27;;;;;;;19.83;15.80;;;19.70;99.90;;;;;;5077577;28;20472;-80
2023/09/11 06:43:20;;;;;;;16.63;15.00;;;19.70;99.90;;;;;;5082216;28;20440;-81
2023/09/11 06:45:59;;;;;;;15.70;14.27;;;19.80;99.90;;;;;;5095545;28;20638;-80
2023/09/11 06:51:39;;;;;;;15.70;14.40;;;19.90;99.90;;;;;;5084836;28;20432;-80
2023/09/11 06:54:40;;;;;;;15.97;14.47;;;20.00;99.90;;;;;;5079604;28;20460;-80
2023/09/11 06:57:24;;;;;;;18.40;15.03;;;20.10;99.90;;;;;;5078792;28;20450;-80
2023/09/11 07:00:12;;;;;;;16.13;14.47;;;20.20;99.90;;;;;;5080093;28;20487;-80
2023/09/11 07:06:20;;;;;;;15.93;14.07;;;20.40;99.90;;;;;;5066872;28;20441;-79
2023/09/11 07:09:21;;;;;;;;;;;;;;;;;;;;;
2023/09/11 07:12:14;;;;;;;15.13;13.30;;;20.60;99.90;;;;;;5064126;28;20437;-79
2023/09/11 07:15:01;;;;;;;13.90;12.60;;;20.70;99.90;;;;;;5046589;28;20470;-79
2023/09/11 07:17:40;;;;;;;13.70;12.47;;;20.80;99.90;;;;;;5043119;28;20443;-81
2023/09/11 07:20:28;;;;;;;16.33;14.63;;;20.90;99.90;;;;;;5044112;28;20504;-79
2023/09/11 07:23:06;;;;;;;14.53;13.17;;;20.90;99.90;;;;;;5039541;28;20455;-79
2023/09/11 07:25:58;;;;;;;14.00;12.57;;;20.90;99.90;;;;;;5039668;28;20477;-80
2023/09/11 07:29:01;;;;;;;13.53;12.33;;;21.10;99.90;;;;;;5036830;28;20454;-80
2023/09/11 07:31:40;;;;;;;14.70;12.50;;;21.30;99.90;;;;;;5038544;28;20450;-81
2023/09/11 07:34:25;;;;;;;13.70;12.30;;;21.40;99.90;;;;;;5039204;28;20493;-80
2023/09/11 07:37:02;;;;;;;14.40;12.70;;;21.60;99.90;;;;;;5038925;28;20442;-82
2023/09/11 07:39:44;;;;;;;14.57;13.27;;;21.80;99.90;;;;;;5037701;28;20541;-79
2023/09/11 07:42:27;;;;;;;14.83;13.27;;;21.90;99.90;;;;;;5036324;28;20516;-80
2023/09/11 07:45:03;;;;;;;15.93;14.50;;;22.10;99.90;;;;;;5037570;28;20530;-81
2023/09/11 07:47:41;;;;;;;16.90;13.17;;;22.20;99.90;;;;;;5039506;28;20561;-80
2023/09/11 07:50:32;;;;;;;14.40;13.10;;;22.30;99.90;;;;;;5038223;28;20512;-79
2023/09/11 07:53:07;;;;;;;13.33;12.10;;;22.50;99.90;;;;;;5040441;28;20462;-80
2023/09/11 07:59:07;;;;;;;12.73;11.67;;;22.70;99.90;;;;;;5041270;28;20498;-81
2023/09/11 08:01:41;;;;;;;16.47;14.83;;;23.00;99.90;;;;;;5043423;28;20455;-81
2023/09/11 08:04:31;;;;;;;14.70;13.40;;;23.20;99.90;;;;;;5042644;28;20515;-80
2023/09/11 08:07:05;;;;;;;18.43;12.73;;;23.40;99.90;;;;;;5041995;28;20450;-80
2023/09/11 08:09:46;;;;;;;14.20;12.70;;;23.60;99.90;;;;;;5039203;28;20457;-81
2023/09/11 08:12:28;;;;;;;15.47;14.07;;;23.80;99.90;;;;;;5039783;28;20542;-79
2023/09/11 08:15:18;;;;;;;14.10;12.70;;;23.90;99.90;;;;;;5059907;28;20492;-80
2023/09/11 08:17:47;;;;;;;13.73;12.53;;;24.10;99.90;;;;;;5056679;28;20470;-79
2023/09/11 08:20:41;;;;;;;13.60;12.40;;;24.20;99.90;;;;;;5058922;28;20477;-79
2023/09/11 08:23:15;;;;;;;14.00;12.80;;;24.40;99.90;;;;;;5060059;28;20448;-80
2023/09/11 08:26:11;;;;;;;14.27;12.80;;;24.60;99.90;;;;;;5064477;28;20445;-81
2023/09/11 08:29:22;;;;;;;13.17;11.97;;;24.60;99.90;;;;;;5060175;28;20646;-79
2023/09/11 08:39:23;;;;;;;12.67;11.57;;;25.40;99.90;;;;;;5005974;28;20484;-82
2023/09/11 08:42:16;;;;;;;15.30;13.00;;;25.60;99.90;;;;;;5057068;28;20450;-81
2023/09/11 08:45:10;;;;;;;12.60;11.40;;;25.90;99.90;;;;;;5058884;28;20492;-82
2023/09/11 08:48:04;;;;;;;13.30;11.80;;;26.10;99.90;;;;;;5056564;28;20480;-80
2023/09/11 08:50:58;;;;;;;13.60;12.20;;;26.20;99.90;;;;;;5056286;28;20575;-83
2023/09/11 08:53:37;;;;;;;14.73;11.47;;;26.10;99.90;;;;;;5054443;28;20796;-81
2023/09/11 08:56:14;;;;;;;12.17;10.77;;;26.60;99.90;;;;;;5056442;28;20480;-81
2023/09/11 08:58:54;;;;;;;11.17;10.03;;;26.90;99.90;;;;;;5059812;28;20445;-81
2023/09/11 09:01:33;;;;;;;12.10;10.40;;;27.20;99.90;;;;;;5066931;28;20479;-81
2023/09/11 09:07:46;;;;;;;10.87;9.77;;;27.50;99.90;;;;;;5036834;28;20473;-81
2023/09/11 09:16:29;;;;;;;11.03;10.07;;;28.30;99.90;;;;;;5040587;28;20806;-80
2023/09/11 09:19:12;;;;;;;11.93;10.70;;;28.40;99.90;;;;;;5036766;28;20669;-80
2023/09/11 09:22:10;;;;;;;11.40;10.50;;;28.60;99.90;;;;;;5035969;28;20454;-79
2023/09/11 09:24:59;;;;;;;11.27;10.30;;;28.70;99.90;;;;;;5036144;28;20518;-80
2023/09/11 09:27:38;;;;;;;12.40;10.50;;;28.90;99.90;;;;;;5036016;28;20457;-81
2023/09/11 09:30:34;;;;;;;11.17;10.07;;;28.80;99.90;;;;;;5035842;28;20537;-79
2023/09/11 09:33:22;;;;;;;10.53;9.40;;;29.10;99.90;;;;;;5038425;28;20480;-81
2023/09/11 09:35:54;;;;;;;11.37;10.27;;;29.40;99.90;;;;;;5039010;28;20446;-82
2023/09/11 09:38:29;;;;;;;8.77;8.03;;;29.70;99.90;;;;;;5039243;28;20450;-82
2023/09/11 09:41:23;;;;;;;10.50;9.13;;;30.10;99.90;;;;;;5038885;28;20501;-81
2023/09/11 09:44:08;;;;;;;10.53;9.13;;;30.30;99.90;;;;;;5035982;28;20540;-79
2023/09/11 09:46:48;;;;;;;10.17;9.37;;;30.50;99.90;;;;;;5035928;28;20457;-80
2023/09/11 09:49:31;;;;;;;10.63;9.70;;;30.70;99.90;;;;;;5035925;28;20453;-80
2023/09/11 09:52:08;;;;;;;10.20;9.30;;;30.80;99.90;;;;;;5035211;28;20454;-79
2023/09/11 09:55:02;;;;;;;9.00;8.07;;;30.90;99.90;;;;;;5039003;28;20524;-80
2023/09/11 09:57:44;;;;;;;9.83;8.67;;;31.10;99.90;;;;;;5046783;28;20481;-81
2023/09/11 10:00:33;;;;;;;10.90;9.83;;;30.80;99.90;;;;;;5044639;28;20571;-81
2023/09/11 10:03:04;;;;;;;9.63;8.63;;;30.70;99.90;;;;;;5043500;28;20446;-79
2023/09/11 10:05:40;;;;;;;9.47;7.80;;;31.50;99.90;;;;;;5042500;28;20471;-81
2023/09/11 10:08:21;;;;;;;10.03;9.13;;;31.90;99.90;;;;;;5045293;28;20460;-81
2023/09/11 10:10:50;;;;;;;10.13;8.00;;;32.10;99.90;;;;;;5044324;28;20473;-81
2023/09/11 10:13:32;;;;;;;10.07;8.87;;;32.40;99.90;;;;;;5042013;28;20538;-80
2023/09/11 10:16:06;;;;;;;10.23;8.30;;;32.50;99.90;;;;;;5038635;28;20476;-79
2023/09/11 10:18:45;;;;;;;9.10;8.20;;;32.50;99.90;;;;;;5040648;28;20458;-80
2023/09/11 10:21:19;;;;;;;9.40;8.60;;;32.30;99.90;;;;;;5038628;28;20485;-81
2023/09/11 10:24:00;;;;;;;8.83;8.10;;;32.80;99.90;;;;;;5037445;28;20471;-81
2023/09/11 10:26:38;;;;;;;8.87;8.20;;;32.80;99.90;;;;;;5038396;28;20458;-82
2023/09/11 10:29:23;;;;;;;11.00;8.13;;;32.90;99.90;;;;;;5048831;28;20415;-81
2023/09/11 10:32:09;;;;;;;11.67;8.73;;;33.10;99.90;;;;;;5054574;28;20442;-81
2023/09/11 10:34:46;;;;;;;9.43;7.60;;;33.20;99.90;;;;;;5056237;28;20454;-80
2023/09/11 10:37:28;;;;;;;12.13;7.70;;;33.40;99.90;;;;;;5055488;28;20431;-81
2023/09/11 10:40:25;;;;;;;8.97;8.07;;;33.60;99.90;;;;;;5056729;28;20477;-81
2023/09/11 10:46:49;;;;;;;;;;;;;;;;;;;;;
2023/09/11 10:49:40;;;;;;;8.80;7.90;;;33.60;98.60;;;;;;5047601;28;20451;-82
2023/09/11 10:55:10;;;;;;;11.47;8.67;;;33.30;98.70;;;;;;5037149;28;20478;-82
2023/09/11 10:57:50;;;;;;;8.93;7.97;;;33.50;97.40;;;;;;5036583;28;20788;-82
2023/09/11 11:00:23;;;;;;;9.97;8.30;;;33.70;97.60;;;;;;5036982;28;20489;-82
2023/09/11 11:09:58;;;;;;;8.77;7.80;;;34.90;95.10;;;;;;5033745;28;20427;-83
2023/09/11 11:19:16;;;;;;;8.90;8.10;;;35.10;93.00;;;;;;5046216;28;20426;-81
2023/09/11 11:28:27;;;;;;;15.73;14.10;;;35.00;92.40;;;;;;4994477;28;20417;-82
2023/09/11 11:31:00;;;;;;;8.33;7.57;;;35.00;92.00;;;;;;5045258;28;20439;-81
2023/09/11 11:33:38;;;;;;;9.87;8.43;;;35.20;91.60;;;;;;5038517;28;20502;-83
2023/09/11 11:36:14;;;;;;;8.20;7.37;;;35.40;91.20;;;;;;5038428;28;20481;-81
2023/09/11 11:38:52;;;;;;;9.10;8.20;;;;;;;;;;5037929;28;20446;-81
2023/09/11 11:41:20;;;;;;;12.80;7.90;;;;;;;;;;5040186;28;20470;-80
2023/09/11 11:43:51;;;;;;;9.40;8.60;;;;;;;;;;5039532;28;20474;-80
2023/09/11 11:46:28;;;;;;;9.03;8.13;;;;;;;;;;5038526;28;20458;-82
2023/09/11 11:48:56;;;;;;;7.90;7.30;;;;;;;;;;5037279;28;20458;-80
2023/09/11 11:51:36;;;;;;;8.03;7.33;;;;;;;;;;5037275;28;20450;-79
2023/09/11 11:54:05;;;;;;;8.10;7.40;;;;;;;;;;5037301;28;20897;-80
2023/09/11 11:56:33;;;;;;;8.67;7.77;;;;;;;;;;5037494;28;20447;-80
2023/09/11 11:59:03;;;;;;;7.97;7.23;;;;;;;;;;5037454;28;20454;-81
2023/09/11 12:01:44;;;;;;;7.90;7.30;;;;;;;;;;5038654;28;20474;-81
2023/09/11 12:04:15;;;;;;;11.47;7.17;;;;;;;;;;5037844;28;21019;-79
2023/09/11 12:07:05;;;;;;;10.70;6.87;;;;;;;;;;5037909;28;20465;-79
2023/09/11 12:09:51;;;;;;;12.27;7.77;;;;;;;;;;5037737;28;21032;-79
2023/09/11 12:15:23;;;;;;;7.27;6.60;;;;;;;;;;5033599;28;20469;-79
2023/09/11 12:18:00;;;;;;;7.40;6.80;;;;;;;;;;5037089;28;20535;-79
2023/09/11 12:23:47;;;;;;;8.03;7.23;;;;;;;;;;5032661;28;20454;-81
2023/09/11 12:26:23;;;;;;;9.37;7.30;;;;;;;;;;5026194;28;20525;-80
2023/09/11 12:29:01;;;;;;;6.80;6.30;;;;;;;;;;5032131;28;20504;-79
2023/09/11 12:31:32;;;;;;;7.03;6.37;;;;;;;;;;5039598;28;20529;-79
2023/09/11 12:34:08;;;;;;;7.40;6.67;;;;;;;;;;5039516;28;20541;-80
2023/09/11 12:36:41;;;;;;;9.50;7.27;;;;;;;;;;5036708;28;20510;-80
2023/09/11 12:39:18;;;;;;;8.50;7.50;;;;;;;;;;5040410;28;20453;-79
2023/09/11 12:41:53;;;;;;;8.07;7.27;;;;;;;;;;5038333;28;20481;-80
2023/09/11 12:44:34;;;;;;;7.77;6.63;;;;;;;;;;5039968;28;20442;-81
2023/09/11 12:47:03;;;;;;;6.80;6.00;;;;;;;;;;5039664;28;20454;-80
2023/09/11 12:49:35;;;;;;;7.20;6.60;;;;;;;;;;5042135;28;20481;-82
2023/09/11 12:52:04;;;;;;;6.63;6.13;;;;;;;;;;5042602;28;20793;-80
2023/09/11 12:57:30;;;;;;;8.07;7.27;;;;;;;;;;5038171;28;20527;-80
2023/09/11 12:59:58;;;;;;;11.53;6.27;;;;;;;;;;5036906;28;20469;-81
2023/09/11 13:02:33;;;;;;;7.30;6.60;;;;;;;;;;5036884;28;20455;-79
2023/09/11 13:05:01;;;;;;;7.70;6.20;;;;;;;;;;5037830;28;20477;-79
2023/09/11 13:07:30;;;;;;;7.33;6.60;;;;;;;;;;5039360;28;20481;-79
2023/09/11 13:10:02;;;;;;;7.10;6.40;;;;;;;;;;5041070;28;20530;-80
2023/09/11 13:12:34;;;;;;;8.97;6.10;;;;;;;;;;5041568;28;20461;-81
2023/09/11 13:15:07;;;;;;;7.03;6.33;;;;;;;;;;5048174;28;20478;-79
2023/09/11 13:17:36;;;;;;;11.93;6.10;;;;;;;;;;5047486;28;20477;-80
2023/09/11 13:20:06;;;;;;;7.43;6.70;;;;;;;;;;5049436;28;20435;-81
2023/09/11 13:22:33;;;;;;;11.97;6.80;;;;;;;;;;5047141;28;20452;-79
2023/09/11 13:25:02;;;;;;;6.70;5.83;;;;;;;;;;5048110;28;20473;-81
2023/09/11 13:27:31;;;;;;;11.30;6.87;;;;;;;;;;5047015;28;20461;-79
2023/09/11 13:30:05;;;;;;;8.43;6.40;;;;;;;;;;5049890;28;20466;-81
2023/09/11 13:32:33;;;;;;;8.47;6.17;;;;;;;;;;5050886;28;20461;-81
2023/09/11 13:35:03;;;;;;;10.63;6.60;;;;;;;;;;5050161;28;20485;-80
2023/09/11 13:37:34;;;;;;;11.20;6.27;;;;;;;;;;5049368;28;20443;-80
2023/09/11 13:40:05;;;;;;;7.40;6.60;;;;;;;;;;5048754;28;20569;-81
2023/09/11 13:42:45;;;;;;;6.90;6.30;;;;;;;;;;5049503;28;20500;-80
2023/09/11 13:45:15;;;;;;;7.50;5.80;;;;;;;;;;5048197;28;20501;-81
2023/09/11 13:47:45;;;;;;;8.30;6.50;;;;;;;;;;5048976;28;20450;-81
2023/09/11 13:50:15;;;;;;;6.73;6.23;;;;;;;;;;5046865;28;20465;-80
2023/09/11 13:52:47;;;;;;;7.50;6.40;;;;;;;;;;5046322;28;20519;-81
2023/09/11 13:58:01;;;;;;;7.80;6.30;;;;;;;;;;5043955;28;20457;-80
2023/09/11 14:00:34;;;;;;;7.73;6.30;;;;;;;;;;5045224;28;20496;-80
2023/09/11 14:03:12;;;;;;;8.80;6.10;;;;;;;;;;5042774;28;20474;-80
2023/09/11 14:05:42;;;;;;;7.27;5.93;;;;;;;;;;5042141;28;20462;-79
2023/09/11 14:08:19;;;;;;;6.90;6.30;;;;;;;;;;5045845;28;20442;-82
2023/09/11 14:10:54;;;;;;;6.13;5.10;;;;;;;;;;5044589;28;20516;-80
2023/09/11 14:13:25;;;;;;;8.73;6.50;;;;;;;;;;5044342;28;20477;-79
2023/09/11 14:16:03;;;;;;;7.23;6.47;;;;;;;;;;5041665;28;20555;-79
2023/09/11 14:18:34;;;;;;;6.70;5.70;;;;;;;;;;5040811;28;20642;-80
2023/09/11 14:21:03;;;;;;;7.10;6.00;;;;;;;;;;5041081;28;20462;-80
2023/09/11 14:23:35;;;;;;;7.03;6.43;;;;;;;;;;5040705;28;20604;-80
2023/09/11 14:26:11;;;;;;;6.83;6.20;;;;;;;;;;5039792;28;20505;-80
2023/09/11 14:28:47;;;;;;;9.70;6.43;;;;;;;;;;5041685;28;20442;-80
2023/09/11 14:31:18;;;;;;;6.33;5.73;;;;;;;;;;5042539;28;20517;-78
2023/09/11 14:33:46;;;;;;;9.53;6.33;;;;;;;;;;5043424;28;20472;-78
2023/09/11 14:36:14;;;;;;;6.70;6.20;;;;;;;;;;5043688;28;20472;-79
2023/09/11 14:41:23;;;;;;;7.93;6.40;;;;;;;;;;5042969;28;20470;-80
2023/09/11 14:43:57;;;;;;;12.03;10.00;;;;;;;;;;5043662;28;20475;-78
2023/09/11 14:46:30;;;;;;;7.93;6.40;;;;;;;;;;5044151;28;20803;-80
2023/09/11 14:49:01;;;;;;;10.33;5.40;;;;;;;;;;5044078;28;20533;-79
2023/09/11 14:51:29;;;;;;;7.17;6.13;;;;;;;;;;5046659;28;20447;-81
2023/09/11 14:54:14;;;;;;;10.23;6.40;;;;;;;;;;5045195;28;20474;-79
2023/09/11 14:56:44;;;;;;;8.00;6.07;;;;;;;;;;5044359;28;20449;-78
2023/09/11 14:59:19;;;;;;;8.23;6.50;;;;;;;;;;5045615;28;20461;-80
2023/09/11 15:01:49;;;;;;;6.20;5.63;;;;;;;;;;5053116;28;20522;-80
2023/09/11 15:04:28;;;;;;;8.77;6.83;;;;;;;;;;5085986;28;20479;-81
2023/09/11 15:06:57;;;;;;;7.43;5.60;;;;;;;;;;5084666;28;20831;-80
2023/09/11 15:09:33;;;;;;;10.10;6.17;;;;;;;;;;5082317;28;20463;-80
2023/09/11 15:12:08;;;;;;;10.80;6.43;;;;;;;;;;5082162;28;20498;-79
2023/09/11 15:14:41;;;;;;;7.43;6.43;;;;;;;;;;5080429;28;21123;-79
2023/09/11 15:17:11;;;;;;;11.33;6.27;;;;;;;;;;5080338;28;20517;-81
2023/09/11 15:19:39;;;;;;;8.63;6.37;;;;;;;;;;5081094;28;20478;-80
2023/09/11 15:22:10;;;;;;;7.07;6.37;;;;;;;;;;5081515;28;20515;-81
2023/09/11 15:24:42;;;;;;;8.43;5.80;;;;;;;;;;5080713;28;20547;-81
2023/09/11 15:27:13;;;;;;;9.67;6.70;;;;;;;;;;5081777;28;20449;-81
2023/09/11 15:29:42;;;;;;;8.07;5.77;;;;;;;;;;5079654;28;20584;-80
2023/09/11 15:32:10;;;;;;;7.27;6.67;;;;;;;;;;5082003;28;20490;-79
2023/09/11 15:34:40;;;;;;;9.60;6.67;;;;;;;;;;5076198;28;20468;-79
2023/09/11 15:37:13;;;;;;;7.00;6.23;;;;;;;;;;5077570;28;20483;-79
2023/09/11 15:39:43;;;;;;;8.50;7.00;;;;;;;;;;5082669;28;20448;-81
2023/09/11 15:42:31;;;;;;;6.63;6.00;;;;;;;;;;5081163;28;20487;-80
2023/09/11 15:45:01;;;;;;;7.23;6.43;;;;;;;;;;5078495;28;20475;-79
2023/09/11 15:47:31;;;;;;;6.93;6.33;;;;;;;;;;5077369;28;20532;-79
2023/09/11 15:50:09;;;;;;;9.77;6.67;;;;;;;;;;5077806;28;21164;-80
2023/09/11 15:52:38;;;;;;;8.93;6.20;;;;;;;;;;5076278;28;20540;-79
2023/09/11 15:55:07;;;;;;;11.80;6.50;;;;;;;;;;5078323;28;20976;-80
2023/09/11 15:57:37;;;;;;;9.33;7.30;;;;;;;;;;5082013;28;20504;-80
2023/09/11 16:00:09;;;;;;;12.00;6.93;;;;;;;;;;5077369;28;20867;-81
2023/09/11 16:02:39;;;;;;;9.87;7.13;;;;;;;;;;5075664;28;20853;-81
2023/09/11 16:05:14;;;;;;;7.20;6.00;;;;;;;;;;5078411;28;20980;-81
2023/09/11 16:07:45;;;;;;;8.40;6.63;;;;;;;;;;5080456;28;20448;-82
2023/09/11 16:10:16;;;;;;;7.43;6.73;;;;;;;;;;5080735;28;20528;-82
2023/09/11 16:12:46;;;;;;;7.90;6.90;;;;;;;;;;5081620;28;20449;-81
2023/09/11 16:15:18;;;;;;;7.90;7.20;;;;;;;;;;5081851;28;20533;-81
2023/09/11 16:17:54;;;;;;;7.70;6.90;;;;;;;;;;5081865;28;20452;-79
2023/09/11 16:20:26;;;;;;;8.47;7.13;;;;;;;;;;5082937;28;20429;-80
2023/09/11 16:22:59;;;;;;;9.20;6.83;;;;;;;;;;5082185;28;20553;-81
2023/09/11 16:25:39;;;;;;;10.60;6.97;;;;;;;;;;5083730;28;20547;-82
2023/09/11 16:28:07;;;;;;;8.10;7.37;;;;;;;;;;5087308;28;20440;-80
2023/09/11 16:30:52;;;;;;;7.20;6.60;;;;;;;;;;5087343;28;20467;-81
2023/09/11 16:33:21;;;;;;;7.77;6.97;;;;;;;;;;5095540;28;20428;-80
2023/09/11 16:35:52;;;;;;;12.33;7.50;;;;;;;;;;5095549;28;20451;-80
2023/09/11 16:38:23;;;;;;;7.63;6.93;;;;;;;;;;5089882;28;20433;-80
2023/09/11 16:41:01;;;;;;;7.10;6.50;;;32.50;81.90;;;;;;5086864;28;20466;-83
2023/09/11 16:43:37;;;;;;;7.30;6.53;;;32.40;82.20;;;;;;5086947;28;20505;-80
2023/09/11 16:46:10;;;;;;;9.10;7.40;;;32.30;82.20;;;;;;5086363;28;20505;-82
2023/09/11 16:48:43;;;;;;;11.43;6.90;;;32.30;82.70;;;;;;5088861;28;20409;-81
2023/09/11 16:51:14;;;;;;;11.03;6.60;;;32.20;83.10;;;;;;5088704;28;20472;-82
2023/09/11 16:53:43;;;;;;;8.13;6.43;;;32.40;83.50;;;;;;5083003;28;20952;-81
2023/09/11 16:56:20;;;;;;;7.40;6.40;;;32.00;83.70;;;;;;5080008;28;20458;-81
2023/09/11 16:58:49;;;;;;;9.87;6.70;;;32.00;84.00;;;;;;5078026;28;20444;-81
2023/09/11 17:01:21;;;;;;;11.07;7.70;;;31.90;84.30;;;;;;5081189;28;20425;-81
2023/09/11 17:04:10;;;;;;;8.53;6.57;;;31.50;84.40;;;;;;5080289;28;20495;-81
2023/09/11 17:06:57;;;;;;;8.63;7.10;;;31.40;85.10;;;;;;5077109;28;20540;-82
2023/09/11 17:09:32;;;;;;;9.17;6.70;;;31.50;85.40;;;;;;5079021;28;20480;-82
2023/09/11 17:12:02;;;;;;;8.50;7.60;;;31.60;85.20;;;;;;5081842;28;20453;-82
2023/09/11 17:14:33;;;;;;;11.50;7.90;;;31.50;85.70;;;;;;5079837;28;20533;-80
2023/09/11 17:17:12;;;;;;;8.63;6.60;;;31.40;86.00;;;;;;5078898;28;20508;-80
2023/09/11 17:19:48;;;;;;;6.90;6.20;;;31.30;86.90;;;;;;5080071;28;20506;-81
2023/09/11 17:22:31;;;;;;;7.43;6.73;;;31.20;86.90;;;;;;5080130;28;20484;-80
2023/09/11 17:25:08;;;;;;;8.63;7.27;;;31.00;87.30;;;;;;5080667;28;20472;-81
2023/09/11 17:27:39;;;;;;;10.33;6.80;;;30.80;87.70;;;;;;5082151;28;20995;-82
2023/09/11 17:30:20;;;;;;;10.60;7.70;;;30.60;88.20;;;;;;5083287;28;20448;-82
2023/09/11 17:32:50;;;;;;;8.67;6.73;;;30.50;88.60;;;;;;5082826;28;20440;-84
2023/09/11 17:35:18;;;;;;;7.70;6.50;;;30.10;89.00;;;;;;5082489;28;20472;-83
2023/09/11 17:37:55;;;;;;;8.60;7.67;;;30.30;89.50;;;;;;5082247;28;20444;-82
2023/09/11 17:40:45;;;;;;;7.73;6.93;;;30.30;90.10;;;;;;5082493;28;20455;-83
2023/09/11 17:43:17;;;;;;;10.13;7.50;;;30.20;90.10;;;;;;5083133;28;20476;-82
2023/09/11 17:48:31;;;;;;;7.80;7.10;;;30.10;90.40;;;;;;5081150;28;21046;-80
2023/09/11 17:50:59;;;;;;;7.77;7.13;;;29.90;90.70;;;;;;5087048;28;20421;-82
2023/09/11 17:53:32;;;;;;;7.33;6.63;;;29.90;91.10;;;;;;5087120;28;20512;-82